sensor_id;sensor_type;location;lat;lon;timestamp;temperature;humidity
38568;DHT22;24338;48.280;10.970;2022-10-17T00:01:16;10.70;99.90
38568;DHT22;24338;48.280;10.970;2022-10-17T00:03:48;10.70;99.90
38568;DHT22;24338;48.280;10.970;2022-10-17T00:06:31;10.70;99.90
38568;DHT22;24338;48.280;10.970;2022-10-17T00:09:14;10.70;99.90
38568;DHT22;24338;48.280;10.970;2022-10-17T00:12:02;10.70;99.90
38568;DHT22;24338;48.280;10.970;2022-10-17T00:14:41;10.70;99.90
38568;DHT22;24338;48.280;10.970;2022-10-17T00:17:22;10.70;99.90
38568;DHT22;24338;48.280;10.970;2022-10-17T00:20:05;10.70;99.90
38568;DHT22;24338;48.280;10.970;2022-10-17T00:22:53;10.70;99.90
38568;DHT22;24338;48.280;10.970;2022-10-17T00:25:36;10.70;99.90
38568;DHT22;24338;48.280;10.970;2022-10-17T00:28:46;10.70;99.90
38568;DHT22;24338;48.280;10.970;2022-10-17T00:31:56;10.70;99.90
38568;DHT22;24338;48.280;10.970;2022-10-17T00:34:51;10.70;99.90
38568;DHT22;24338;48.280;10.970;2022-10-17T00:37:39;10.70;99.90
38568;DHT22;24338;48.280;10.970;2022-10-17T00:40:30;10.70;99.90
38568;DHT22;24338;48.280;10.970;2022-10-17T00:43:19;10.70;99.90
38568;DHT22;24338;48.280;10.970;2022-10-17T00:46:10;10.70;99.90
38568;DHT22;24338;48.280;10.970;2022-10-17T00:49:13;10.70;99.90
38568;DHT22;24338;48.280;10.970;2022-10-17T00:52:03;10.60;99.90
38568;DHT22;24338;48.280;10.970;2022-10-17T00:54:42;10.50;99.90
38568;DHT22;24338;48.280;10.970;2022-10-17T00:57:27;10.50;99.90
38568;DHT22;24338;48.280;10.970;2022-10-17T01:00:04;10.40;99.90
38568;DHT22;24338;48.280;10.970;2022-10-17T01:02:33;10.40;99.90
38568;DHT22;24338;48.280;10.970;2022-10-17T01:05:01;10.40;99.90
38568;DHT22;24338;48.280;10.970;2022-10-17T01:07:30;10.40;99.90
38568;DHT22;24338;48.280;10.970;2022-10-17T01:10:04;10.30;99.90
38568;DHT22;24338;48.280;10.970;2022-10-17T01:12:53;10.30;99.90
38568;DHT22;24338;48.280;10.970;2022-10-17T01:21:29;10.20;99.90
38568;DHT22;24338;48.280;10.970;2022-10-17T01:24:21;10.10;99.90
38568;DHT22;24338;48.280;10.970;2022-10-17T01:34:19;10.00;99.90
38568;DHT22;24338;48.280;10.970;2022-10-17T01:40:58;9.90;99.90
38568;DHT22;24338;48.280;10.970;2022-10-17T01:43:46;9.90;99.90
38568;DHT22;24338;48.280;10.970;2022-10-17T01:46:59;9.90;99.90
38568;DHT22;24338;48.280;10.970;2022-10-17T01:49:45;9.90;99.90
38568;DHT22;24338;48.280;10.970;2022-10-17T01:52:22;9.80;99.90
38568;DHT22;24338;48.280;10.970;2022-10-17T01:54:57;9.80;99.90
38568;DHT22;24338;48.280;10.970;2022-10-17T01:57:35;9.70;99.90
38568;DHT22;24338;48.280;10.970;2022-10-17T02:00:11;9.70;99.90
38568;DHT22;24338;48.280;10.970;2022-10-17T02:02:41;9.70;99.90
38568;DHT22;24338;48.280;10.970;2022-10-17T02:05:09;9.60;99.90
38568;DHT22;24338;48.280;10.970;2022-10-17T02:07:38;9.70;99.90
38568;DHT22;24338;48.280;10.970;2022-10-17T02:10:14;9.70;99.90
38568;DHT22;24338;48.280;10.970;2022-10-17T02:18:29;9.70;99.90
38568;DHT22;24338;48.280;10.970;2022-10-17T02:25:22;9.70;99.90
38568;DHT22;24338;48.280;10.970;2022-10-17T02:28:33;9.70;99.90
38568;DHT22;24338;48.280;10.970;2022-10-17T02:31:35;9.60;99.90
38568;DHT22;24338;48.280;10.970;2022-10-17T02:34:49;9.60;99.90
38568;DHT22;24338;48.280;10.970;2022-10-17T02:37:43;9.60;99.90
38568;DHT22;24338;48.280;10.970;2022-10-17T02:40:34;9.60;99.90
38568;DHT22;24338;48.280;10.970;2022-10-17T02:43:12;9.60;99.90
38568;DHT22;24338;48.280;10.970;2022-10-17T02:46:04;9.60;99.90
38568;DHT22;24338;48.280;10.970;2022-10-17T02:49:21;9.60;99.90
38568;DHT22;24338;48.280;10.970;2022-10-17T02:55:29;9.60;99.90
38568;DHT22;24338;48.280;10.970;2022-10-17T02:58:06;9.60;99.90
38568;DHT22;24338;48.280;10.970;2022-10-17T03:00:39;9.60;99.90
38568;DHT22;24338;48.280;10.970;2022-10-17T03:03:40;9.60;99.90
38568;DHT22;24338;48.280;10.970;2022-10-17T03:06:22;9.60;99.90
38568;DHT22;24338;48.280;10.970;2022-10-17T03:09:04;9.60;99.90
38568;DHT22;24338;48.280;10.970;2022-10-17T03:11:49;9.50;99.90
38568;DHT22;24338;48.280;10.970;2022-10-17T03:14:46;9.50;99.90
38568;DHT22;24338;48.280;10.970;2022-10-17T03:18:01;9.40;99.90
38568;DHT22;24338;48.280;10.970;2022-10-17T03:20:50;9.40;99.90
38568;DHT22;24338;48.280;10.970;2022-10-17T03:23:44;9.30;99.90
38568;DHT22;24338;48.280;10.970;2022-10-17T03:26:46;9.30;99.90
38568;DHT22;24338;48.280;10.970;2022-10-17T03:29:34;9.20;99.90
38568;DHT22;24338;48.280;10.970;2022-10-17T03:32:02;9.10;99.90
38568;DHT22;24338;48.280;10.970;2022-10-17T03:34:33;9.10;99.90
38568;DHT22;24338;48.280;10.970;2022-10-17T03:37:03;9.00;99.90
38568;DHT22;24338;48.280;10.970;2022-10-17T03:39:32;9.00;99.90
38568;DHT22;24338;48.280;10.970;2022-10-17T03:42:00;8.90;99.90
38568;DHT22;24338;48.280;10.970;2022-10-17T03:44:28;8.90;99.90
38568;DHT22;24338;48.280;10.970;2022-10-17T03:46:59;8.90;99.90
38568;DHT22;24338;48.280;10.970;2022-10-17T03:49:27;8.90;99.90
38568;DHT22;24338;48.280;10.970;2022-10-17T03:52:03;8.90;99.90
38568;DHT22;24338;48.280;10.970;2022-10-17T03:54:48;8.90;99.90
38568;DHT22;24338;48.280;10.970;2022-10-17T03:57:19;8.90;99.90
38568;DHT22;24338;48.280;10.970;2022-10-17T03:59:49;8.90;99.90
38568;DHT22;24338;48.280;10.970;2022-10-17T04:02:24;8.90;99.90
38568;DHT22;24338;48.280;10.970;2022-10-17T04:04:58;8.90;99.90
38568;DHT22;24338;48.280;10.970;2022-10-17T04:07:39;8.90;99.90
38568;DHT22;24338;48.280;10.970;2022-10-17T04:10:10;8.90;99.90
38568;DHT22;24338;48.280;10.970;2022-10-17T04:12:44;8.80;99.90
38568;DHT22;24338;48.280;10.970;2022-10-17T04:15:31;8.80;99.90
38568;DHT22;24338;48.280;10.970;2022-10-17T04:18:02;8.80;99.90
38568;DHT22;24338;48.280;10.970;2022-10-17T04:20:39;8.80;99.90
38568;DHT22;24338;48.280;10.970;2022-10-17T04:23:21;8.80;99.90
38568;DHT22;24338;48.280;10.970;2022-10-17T04:25:59;8.80;99.90
38568;DHT22;24338;48.280;10.970;2022-10-17T04:28:44;8.80;99.90
38568;DHT22;24338;48.280;10.970;2022-10-17T04:31:32;8.90;99.90
38568;DHT22;24338;48.280;10.970;2022-10-17T04:34:26;8.80;99.90
38568;DHT22;24338;48.280;10.970;2022-10-17T04:37:29;8.80;99.90
38568;DHT22;24338;48.280;10.970;2022-10-17T04:39:58;8.90;99.90
38568;DHT22;24338;48.280;10.970;2022-10-17T04:42:47;8.90;99.90
38568;DHT22;24338;48.280;10.970;2022-10-17T04:45:23;8.80;99.90
38568;DHT22;24338;48.280;10.970;2022-10-17T04:48:14;8.80;99.90
38568;DHT22;24338;48.280;10.970;2022-10-17T04:54:03;8.70;99.90
38568;DHT22;24338;48.280;10.970;2022-10-17T04:57:23;8.70;99.90
38568;DHT22;24338;48.280;10.970;2022-10-17T05:04:04;8.70;99.90
38568;DHT22;24338;48.280;10.970;2022-10-17T05:14:52;8.60;99.90
38568;DHT22;24338;48.280;10.970;2022-10-17T05:17:58;8.60;99.90
38568;DHT22;24338;48.280;10.970;2022-10-17T05:32:21;8.50;99.90
38568;DHT22;24338;48.280;10.970;2022-10-17T05:34:48;8.50;99.90
38568;DHT22;24338;48.280;10.970;2022-10-17T05:37:15;8.50;99.90
38568;DHT22;24338;48.280;10.970;2022-10-17T05:39:41;8.50;99.90
38568;DHT22;24338;48.280;10.970;2022-10-17T05:42:08;8.40;99.90
38568;DHT22;24338;48.280;10.970;2022-10-17T05:44:35;8.40;99.90
38568;DHT22;24338;48.280;10.970;2022-10-17T05:47:02;8.40;99.90
38568;DHT22;24338;48.280;10.970;2022-10-17T05:49:28;8.40;99.90
38568;DHT22;24338;48.280;10.970;2022-10-17T05:52:15;8.50;99.90
38568;DHT22;24338;48.280;10.970;2022-10-17T05:54:42;8.50;99.90
38568;DHT22;24338;48.280;10.970;2022-10-17T05:57:09;8.50;99.90
38568;DHT22;24338;48.280;10.970;2022-10-17T05:59:35;8.50;99.90
38568;DHT22;24338;48.280;10.970;2022-10-17T06:02:02;8.50;99.90
38568;DHT22;24338;48.280;10.970;2022-10-17T06:04:29;8.50;99.90
38568;DHT22;24338;48.280;10.970;2022-10-17T06:06:56;8.50;99.90
38568;DHT22;24338;48.280;10.970;2022-10-17T06:09:23;8.60;99.90
38568;DHT22;24338;48.280;10.970;2022-10-17T06:11:50;8.60;99.90
38568;DHT22;24338;48.280;10.970;2022-10-17T06:14:17;8.60;99.90
38568;DHT22;24338;48.280;10.970;2022-10-17T06:16:43;8.60;99.90
38568;DHT22;24338;48.280;10.970;2022-10-17T06:19:10;8.60;99.90
38568;DHT22;24338;48.280;10.970;2022-10-17T06:21:37;8.60;99.90
38568;DHT22;24338;48.280;10.970;2022-10-17T06:24:04;8.60;99.90
38568;DHT22;24338;48.280;10.970;2022-10-17T06:26:31;8.60;99.90
38568;DHT22;24338;48.280;10.970;2022-10-17T06:28:58;8.60;99.90
38568;DHT22;24338;48.280;10.970;2022-10-17T06:31:25;8.70;99.90
38568;DHT22;24338;48.280;10.970;2022-10-17T06:33:52;8.70;99.90
38568;DHT22;24338;48.280;10.970;2022-10-17T06:36:19;8.80;99.90
38568;DHT22;24338;48.280;10.970;2022-10-17T06:38:46;8.80;99.90
38568;DHT22;24338;48.280;10.970;2022-10-17T06:41:14;8.90;99.90
38568;DHT22;24338;48.280;10.970;2022-10-17T06:43:42;8.90;99.90
38568;DHT22;24338;48.280;10.970;2022-10-17T06:46:13;8.90;99.90
38568;DHT22;24338;48.280;10.970;2022-10-17T06:48:40;9.00;99.90
38568;DHT22;24338;48.280;10.970;2022-10-17T06:51:07;9.10;99.90
38568;DHT22;24338;48.280;10.970;2022-10-17T06:53:38;9.10;99.90
38568;DHT22;24338;48.280;10.970;2022-10-17T06:56:07;9.10;99.90
38568;DHT22;24338;48.280;10.970;2022-10-17T06:58:36;9.20;99.90
38568;DHT22;24338;48.280;10.970;2022-10-17T07:01:07;9.30;99.90
38568;DHT22;24338;48.280;10.970;2022-10-17T07:03:34;9.30;99.90
38568;DHT22;24338;48.280;10.970;2022-10-17T07:06:01;9.40;99.90
38568;DHT22;24338;48.280;10.970;2022-10-17T07:08:28;9.50;99.90
38568;DHT22;24338;48.280;10.970;2022-10-17T07:10:55;9.50;99.90
38568;DHT22;24338;48.280;10.970;2022-10-17T07:13:22;9.50;99.90
38568;DHT22;24338;48.280;10.970;2022-10-17T07:15:49;9.60;99.90
38568;DHT22;24338;48.280;10.970;2022-10-17T07:18:16;9.70;99.90
38568;DHT22;24338;48.280;10.970;2022-10-17T07:20:50;9.70;99.90
38568;DHT22;24338;48.280;10.970;2022-10-17T07:23:17;9.80;99.90
38568;DHT22;24338;48.280;10.970;2022-10-17T07:25:44;9.80;99.90
38568;DHT22;24338;48.280;10.970;2022-10-17T07:28:11;9.90;99.90
38568;DHT22;24338;48.280;10.970;2022-10-17T07:30:39;9.90;99.90
38568;DHT22;24338;48.280;10.970;2022-10-17T07:33:06;10.00;99.90
38568;DHT22;24338;48.280;10.970;2022-10-17T07:35:33;10.10;99.90
38568;DHT22;24338;48.280;10.970;2022-10-17T07:38:00;10.20;99.90
38568;DHT22;24338;48.280;10.970;2022-10-17T07:40:26;10.20;99.90
38568;DHT22;24338;48.280;10.970;2022-10-17T07:42:53;10.30;99.90
38568;DHT22;24338;48.280;10.970;2022-10-17T07:45:21;10.40;99.90
38568;DHT22;24338;48.280;10.970;2022-10-17T07:47:49;10.50;99.90
38568;DHT22;24338;48.280;10.970;2022-10-17T07:50:16;10.60;99.90
38568;DHT22;24338;48.280;10.970;2022-10-17T07:52:43;10.60;99.90
38568;DHT22;24338;48.280;10.970;2022-10-17T07:55:09;10.90;99.90
38568;DHT22;24338;48.280;10.970;2022-10-17T07:57:36;11.00;99.90
38568;DHT22;24338;48.280;10.970;2022-10-17T08:00:03;11.10;99.90
38568;DHT22;24338;48.280;10.970;2022-10-17T08:02:31;11.20;99.90
38568;DHT22;24338;48.280;10.970;2022-10-17T08:04:58;11.30;99.90
38568;DHT22;24338;48.280;10.970;2022-10-17T08:07:25;11.40;99.90
38568;DHT22;24338;48.280;10.970;2022-10-17T08:09:55;11.60;99.90
38568;DHT22;24338;48.280;10.970;2022-10-17T08:12:22;11.70;99.90
38568;DHT22;24338;48.280;10.970;2022-10-17T08:14:49;11.80;99.90
38568;DHT22;24338;48.280;10.970;2022-10-17T08:17:16;11.90;99.90
38568;DHT22;24338;48.280;10.970;2022-10-17T08:19:43;11.90;99.90
38568;DHT22;24338;48.280;10.970;2022-10-17T08:22:10;12.00;99.90
38568;DHT22;24338;48.280;10.970;2022-10-17T08:24:36;12.10;99.90
38568;DHT22;24338;48.280;10.970;2022-10-17T08:27:03;12.10;99.90
38568;DHT22;24338;48.280;10.970;2022-10-17T08:29:38;12.20;99.90
38568;DHT22;24338;48.280;10.970;2022-10-17T08:32:05;12.30;99.90
38568;DHT22;24338;48.280;10.970;2022-10-17T08:34:35;12.30;99.90
38568;DHT22;24338;48.280;10.970;2022-10-17T08:37:02;12.40;99.90
38568;DHT22;24338;48.280;10.970;2022-10-17T08:39:29;12.50;99.90
38568;DHT22;24338;48.280;10.970;2022-10-17T08:47:45;12.90;99.90
38568;DHT22;24338;48.280;10.970;2022-10-17T08:53:05;13.10;99.90
38568;DHT22;24338;48.280;10.970;2022-10-17T08:55:41;13.30;99.90
38568;DHT22;24338;48.280;10.970;2022-10-17T08:58:24;13.40;99.90
38568;DHT22;24338;48.280;10.970;2022-10-17T09:06:20;13.80;99.90
38568;DHT22;24338;48.280;10.970;2022-10-17T09:12:35;14.10;99.90
38568;DHT22;24338;48.280;10.970;2022-10-17T09:23:52;14.90;99.90
38568;DHT22;24338;48.280;10.970;2022-10-17T09:26:37;14.90;99.90
38568;DHT22;24338;48.280;10.970;2022-10-17T09:29:17;15.10;99.90
38568;DHT22;24338;48.280;10.970;2022-10-17T09:32:14;15.30;99.90
38568;DHT22;24338;48.280;10.970;2022-10-17T09:34:43;15.60;99.90
38568;DHT22;24338;48.280;10.970;2022-10-17T09:37:14;15.80;99.90
38568;DHT22;24338;48.280;10.970;2022-10-17T09:39:42;16.00;99.90
38568;DHT22;24338;48.280;10.970;2022-10-17T09:42:14;16.30;99.90
38568;DHT22;24338;48.280;10.970;2022-10-17T09:44:51;16.40;99.90
38568;DHT22;24338;48.280;10.970;2022-10-17T09:47:52;16.50;99.90
38568;DHT22;24338;48.280;10.970;2022-10-17T09:50:30;16.70;99.90
38568;DHT22;24338;48.280;10.970;2022-10-17T09:53:17;16.80;99.90
38568;DHT22;24338;48.280;10.970;2022-10-17T09:55:48;16.90;99.90
38568;DHT22;24338;48.280;10.970;2022-10-17T09:58:16;17.10;99.90
38568;DHT22;24338;48.280;10.970;2022-10-17T10:00:45;17.20;99.90
38568;DHT22;24338;48.280;10.970;2022-10-17T10:03:21;17.30;99.90
38568;DHT22;24338;48.280;10.970;2022-10-17T10:06:04;17.50;99.90
38568;DHT22;24338;48.280;10.970;2022-10-17T10:08:46;17.70;99.90
38568;DHT22;24338;48.280;10.970;2022-10-17T10:11:15;17.80;99.90
38568;DHT22;24338;48.280;10.970;2022-10-17T10:13:45;17.90;99.90
38568;DHT22;24338;48.280;10.970;2022-10-17T10:18:46;18.10;99.90
38568;DHT22;24338;48.280;10.970;2022-10-17T10:21:19;18.30;99.90
38568;DHT22;24338;48.280;10.970;2022-10-17T10:26:37;18.40;99.90
38568;DHT22;24338;48.280;10.970;2022-10-17T10:29:52;18.50;99.90
38568;DHT22;24338;48.280;10.970;2022-10-17T10:37:44;18.90;99.90
38568;DHT22;24338;48.280;10.970;2022-10-17T10:40:19;19.10;99.90
38568;DHT22;24338;48.280;10.970;2022-10-17T10:42:50;19.10;99.90
38568;DHT22;24338;48.280;10.970;2022-10-17T10:45:22;19.10;99.90
38568;DHT22;24338;48.280;10.970;2022-10-17T10:48:22;19.30;99.90
38568;DHT22;24338;48.280;10.970;2022-10-17T10:53:41;19.40;99.90
38568;DHT22;24338;48.280;10.970;2022-10-17T10:56:13;19.60;99.90
38568;DHT22;24338;48.280;10.970;2022-10-17T10:58:53;19.70;99.90
38568;DHT22;24338;48.280;10.970;2022-10-17T11:04:36;20.20;99.90
38568;DHT22;24338;48.280;10.970;2022-10-17T11:07:19;20.30;99.90
38568;DHT22;24338;48.280;10.970;2022-10-17T11:12:50;20.50;99.90
38568;DHT22;24338;48.280;10.970;2022-10-17T11:15:39;20.50;99.90
38568;DHT22;24338;48.280;10.970;2022-10-17T11:24:10;20.80;99.90
38568;DHT22;24338;48.280;10.970;2022-10-17T11:26:51;21.00;99.90
38568;DHT22;24338;48.280;10.970;2022-10-17T11:29:19;20.90;99.90
38568;DHT22;24338;48.280;10.970;2022-10-17T11:31:51;21.00;99.90
38568;DHT22;24338;48.280;10.970;2022-10-17T11:34:21;21.10;99.90
38568;DHT22;24338;48.280;10.970;2022-10-17T11:37:02;21.30;99.90
38568;DHT22;24338;48.280;10.970;2022-10-17T11:39:38;21.30;99.90
38568;DHT22;24338;48.280;10.970;2022-10-17T11:42:18;21.40;99.90
38568;DHT22;24338;48.280;10.970;2022-10-17T11:44:50;21.40;99.90
38568;DHT22;24338;48.280;10.970;2022-10-17T11:47:44;21.40;99.90
38568;DHT22;24338;48.280;10.970;2022-10-17T11:53:20;21.50;99.90
38568;DHT22;24338;48.280;10.970;2022-10-17T11:55:49;21.60;99.90
38568;DHT22;24338;48.280;10.970;2022-10-17T12:01:45;21.70;99.90
38568;DHT22;24338;48.280;10.970;2022-10-17T12:10:38;22.00;99.90
38568;DHT22;24338;48.280;10.970;2022-10-17T12:16:15;22.10;99.90
38568;DHT22;24338;48.280;10.970;2022-10-17T12:18:45;22.00;99.90
38568;DHT22;24338;48.280;10.970;2022-10-17T12:21:12;22.00;99.90
38568;DHT22;24338;48.280;10.970;2022-10-17T12:23:39;22.00;99.90
38568;DHT22;24338;48.280;10.970;2022-10-17T12:26:09;22.00;99.90
38568;DHT22;24338;48.280;10.970;2022-10-17T12:31:24;22.10;99.90
38568;DHT22;24338;48.280;10.970;2022-10-17T12:34:01;22.10;99.90
38568;DHT22;24338;48.280;10.970;2022-10-17T12:46:57;22.60;99.90
38568;DHT22;24338;48.280;10.970;2022-10-17T12:49:42;22.60;99.90
38568;DHT22;24338;48.280;10.970;2022-10-17T12:55:05;22.80;99.90
38568;DHT22;24338;48.280;10.970;2022-10-17T12:58:00;22.80;99.90
38568;DHT22;24338;48.280;10.970;2022-10-17T13:00:45;22.80;99.90
38568;DHT22;24338;48.280;10.970;2022-10-17T13:03:42;22.60;99.90
38568;DHT22;24338;48.280;10.970;2022-10-17T13:06:23;22.60;99.90
38568;DHT22;24338;48.280;10.970;2022-10-17T13:09:03;22.50;99.90
38568;DHT22;24338;48.280;10.970;2022-10-17T13:11:33;22.40;99.90
38568;DHT22;24338;48.280;10.970;2022-10-17T13:14:02;22.30;99.80
38568;DHT22;24338;48.280;10.970;2022-10-17T13:16:36;22.30;99.90
38568;DHT22;24338;48.280;10.970;2022-10-17T13:19:15;22.20;99.90
38568;DHT22;24338;48.280;10.970;2022-10-17T13:21:52;22.10;99.90
38568;DHT22;24338;48.280;10.970;2022-10-17T13:24:30;22.00;99.90
38568;DHT22;24338;48.280;10.970;2022-10-17T13:26:57;21.90;99.90
38568;DHT22;24338;48.280;10.970;2022-10-17T13:29:25;21.80;99.90
38568;DHT22;24338;48.280;10.970;2022-10-17T13:32:01;21.80;99.90
38568;DHT22;24338;48.280;10.970;2022-10-17T13:34:32;21.90;99.90
38568;DHT22;24338;48.280;10.970;2022-10-17T13:37:01;21.90;99.90
38568;DHT22;24338;48.280;10.970;2022-10-17T13:39:33;21.90;99.90
38568;DHT22;24338;48.280;10.970;2022-10-17T13:42:27;21.80;99.90
38568;DHT22;24338;48.280;10.970;2022-10-17T13:44:56;21.90;99.90
38568;DHT22;24338;48.280;10.970;2022-10-17T13:47:26;21.90;99.90
38568;DHT22;24338;48.280;10.970;2022-10-17T13:49:54;21.90;99.90
38568;DHT22;24338;48.280;10.970;2022-10-17T13:52:27;21.90;99.90
38568;DHT22;24338;48.280;10.970;2022-10-17T13:55:11;21.80;99.90
38568;DHT22;24338;48.280;10.970;2022-10-17T13:57:44;21.80;99.90
38568;DHT22;24338;48.280;10.970;2022-10-17T14:00:21;21.80;99.90
38568;DHT22;24338;48.280;10.970;2022-10-17T14:02:48;21.80;99.90
38568;DHT22;24338;48.280;10.970;2022-10-17T14:05:17;21.80;99.90
38568;DHT22;24338;48.280;10.970;2022-10-17T14:10:38;21.80;99.90
38568;DHT22;24338;48.280;10.970;2022-10-17T14:13:06;21.80;99.90
38568;DHT22;24338;48.280;10.970;2022-10-17T14:15:44;21.80;99.90
38568;DHT22;24338;48.280;10.970;2022-10-17T14:18:27;21.80;99.90
38568;DHT22;24338;48.280;10.970;2022-10-17T14:21:02;21.80;99.90
38568;DHT22;24338;48.280;10.970;2022-10-17T14:23:51;21.80;99.90
38568;DHT22;24338;48.280;10.970;2022-10-17T14:26:20;22.10;99.90
38568;DHT22;24338;48.280;10.970;2022-10-17T14:31:37;22.20;99.90
38568;DHT22;24338;48.280;10.970;2022-10-17T14:34:04;22.20;99.90
38568;DHT22;24338;48.280;10.970;2022-10-17T14:36:36;22.20;99.70
38568;DHT22;24338;48.280;10.970;2022-10-17T14:39:06;22.20;99.90
38568;DHT22;24338;48.280;10.970;2022-10-17T14:41:43;22.30;99.70
38568;DHT22;24338;48.280;10.970;2022-10-17T14:44:21;22.30;98.40
38568;DHT22;24338;48.280;10.970;2022-10-17T14:46:53;22.20;97.60
38568;DHT22;24338;48.280;10.970;2022-10-17T14:49:30;22.20;98.10
38568;DHT22;24338;48.280;10.970;2022-10-17T14:52:24;22.20;98.50
38568;DHT22;24338;48.280;10.970;2022-10-17T14:54:59;22.10;98.20
38568;DHT22;24338;48.280;10.970;2022-10-17T14:57:44;22.10;98.50
38568;DHT22;24338;48.280;10.970;2022-10-17T15:00:17;21.90;99.90
38568;DHT22;24338;48.280;10.970;2022-10-17T15:02:49;21.80;99.30
38568;DHT22;24338;48.280;10.970;2022-10-17T15:05:17;21.70;99.90
38568;DHT22;24338;48.280;10.970;2022-10-17T15:07:45;21.70;99.90
38568;DHT22;24338;48.280;10.970;2022-10-17T15:10:35;21.60;99.90
38568;DHT22;24338;48.280;10.970;2022-10-17T15:13:02;21.50;99.90
38568;DHT22;24338;48.280;10.970;2022-10-17T15:15:50;21.50;99.90
38568;DHT22;24338;48.280;10.970;2022-10-17T15:18:18;21.40;99.90
38568;DHT22;24338;48.280;10.970;2022-10-17T15:20:45;21.30;99.90
38568;DHT22;24338;48.280;10.970;2022-10-17T15:23:11;21.20;99.90
38568;DHT22;24338;48.280;10.970;2022-10-17T15:25:38;21.10;99.90
38568;DHT22;24338;48.280;10.970;2022-10-17T15:28:05;20.90;99.90
38568;DHT22;24338;48.280;10.970;2022-10-17T15:30:34;20.80;99.90
38568;DHT22;24338;48.280;10.970;2022-10-17T15:33:02;20.70;99.90
38568;DHT22;24338;48.280;10.970;2022-10-17T15:35:28;20.50;99.90
38568;DHT22;24338;48.280;10.970;2022-10-17T15:37:55;20.40;99.90
38568;DHT22;24338;48.280;10.970;2022-10-17T15:40:27;20.30;99.90
38568;DHT22;24338;48.280;10.970;2022-10-17T15:42:55;20.20;99.90
38568;DHT22;24338;48.280;10.970;2022-10-17T15:45:22;20.00;99.90
38568;DHT22;24338;48.280;10.970;2022-10-17T15:48:03;19.90;99.90
38568;DHT22;24338;48.280;10.970;2022-10-17T15:50:30;19.70;99.90
38568;DHT22;24338;48.280;10.970;2022-10-17T15:52:58;19.50;99.90
38568;DHT22;24338;48.280;10.970;2022-10-17T15:59:23;19.20;99.90
38568;DHT22;24338;48.280;10.970;2022-10-17T16:01:50;19.00;99.90
38568;DHT22;24338;48.280;10.970;2022-10-17T16:04:17;18.90;99.90
38568;DHT22;24338;48.280;10.970;2022-10-17T16:06:44;18.70;99.90
38568;DHT22;24338;48.280;10.970;2022-10-17T16:09:11;18.60;99.90
38568;DHT22;24338;48.280;10.970;2022-10-17T16:11:40;18.50;99.90
38568;DHT22;24338;48.280;10.970;2022-10-17T16:14:13;18.40;99.90
38568;DHT22;24338;48.280;10.970;2022-10-17T16:16:40;18.30;99.90
38568;DHT22;24338;48.280;10.970;2022-10-17T16:19:08;18.10;99.90
38568;DHT22;24338;48.280;10.970;2022-10-17T16:21:38;18.00;99.90
38568;DHT22;24338;48.280;10.970;2022-10-17T16:24:05;17.90;99.90
38568;DHT22;24338;48.280;10.970;2022-10-17T16:26:32;17.80;99.90
38568;DHT22;24338;48.280;10.970;2022-10-17T16:28:59;17.70;99.90
38568;DHT22;24338;48.280;10.970;2022-10-17T16:31:35;17.60;99.90
38568;DHT22;24338;48.280;10.970;2022-10-17T16:34:05;17.40;99.90
38568;DHT22;24338;48.280;10.970;2022-10-17T16:36:35;17.30;99.90
38568;DHT22;24338;48.280;10.970;2022-10-17T16:39:13;17.20;99.90
38568;DHT22;24338;48.280;10.970;2022-10-17T16:41:40;17.10;99.90
38568;DHT22;24338;48.280;10.970;2022-10-17T16:44:09;17.00;99.90
38568;DHT22;24338;48.280;10.970;2022-10-17T16:46:57;16.90;99.90
38568;DHT22;24338;48.280;10.970;2022-10-17T16:49:24;16.80;99.90
38568;DHT22;24338;48.280;10.970;2022-10-17T16:54:26;16.60;99.90
38568;DHT22;24338;48.280;10.970;2022-10-17T16:56:53;16.50;99.90
38568;DHT22;24338;48.280;10.970;2022-10-17T16:59:20;16.40;99.90
38568;DHT22;24338;48.280;10.970;2022-10-17T17:01:47;16.40;99.90
38568;DHT22;24338;48.280;10.970;2022-10-17T17:04:13;16.30;99.90
38568;DHT22;24338;48.280;10.970;2022-10-17T17:06:41;16.20;99.90
38568;DHT22;24338;48.280;10.970;2022-10-17T17:09:08;16.10;99.90
38568;DHT22;24338;48.280;10.970;2022-10-17T17:11:35;16.00;99.90
38568;DHT22;24338;48.280;10.970;2022-10-17T17:14:04;15.90;99.90
38568;DHT22;24338;48.280;10.970;2022-10-17T17:16:43;15.90;99.90
38568;DHT22;24338;48.280;10.970;2022-10-17T17:19:28;15.80;99.90
38568;DHT22;24338;48.280;10.970;2022-10-17T17:33:50;15.40;99.90
38568;DHT22;24338;48.280;10.970;2022-10-17T17:36:49;15.30;99.90
38568;DHT22;24338;48.280;10.970;2022-10-17T17:39:52;15.20;99.90
38568;DHT22;24338;48.280;10.970;2022-10-17T17:42:27;15.20;99.90
38568;DHT22;24338;48.280;10.970;2022-10-17T17:44:53;15.10;99.90
38568;DHT22;24338;48.280;10.970;2022-10-17T17:47:20;15.00;99.90
38568;DHT22;24338;48.280;10.970;2022-10-17T17:49:47;14.90;99.90
38568;DHT22;24338;48.280;10.970;2022-10-17T17:52:14;14.90;99.90
38568;DHT22;24338;48.280;10.970;2022-10-17T17:54:41;14.80;99.90
38568;DHT22;24338;48.280;10.970;2022-10-17T17:57:08;14.80;99.90
38568;DHT22;24338;48.280;10.970;2022-10-17T17:59:38;14.70;99.90
38568;DHT22;24338;48.280;10.970;2022-10-17T18:02:06;14.70;99.90
38568;DHT22;24338;48.280;10.970;2022-10-17T18:04:34;14.60;99.90
38568;DHT22;24338;48.280;10.970;2022-10-17T18:10:21;14.50;99.90
38568;DHT22;24338;48.280;10.970;2022-10-17T18:13:38;14.50;99.90
38568;DHT22;24338;48.280;10.970;2022-10-17T18:16:06;14.40;99.90
38568;DHT22;24338;48.280;10.970;2022-10-17T18:18:43;14.30;99.90
38568;DHT22;24338;48.280;10.970;2022-10-17T18:21:12;14.30;99.90
38568;DHT22;24338;48.280;10.970;2022-10-17T18:23:40;14.20;99.90
38568;DHT22;24338;48.280;10.970;2022-10-17T18:37:56;14.10;99.90
38568;DHT22;24338;48.280;10.970;2022-10-17T18:41:27;14.00;99.90
38568;DHT22;24338;48.280;10.970;2022-10-17T18:43:55;14.00;99.90
38568;DHT22;24338;48.280;10.970;2022-10-17T18:46:27;13.90;99.90
38568;DHT22;24338;48.280;10.970;2022-10-17T18:48:54;13.90;99.90
38568;DHT22;24338;48.280;10.970;2022-10-17T18:51:23;13.80;99.90
38568;DHT22;24338;48.280;10.970;2022-10-17T18:54:20;13.80;99.90
38568;DHT22;24338;48.280;10.970;2022-10-17T18:56:52;13.70;99.90
38568;DHT22;24338;48.280;10.970;2022-10-17T18:59:20;13.70;99.90
38568;DHT22;24338;48.280;10.970;2022-10-17T19:02:18;13.70;99.90
38568;DHT22;24338;48.280;10.970;2022-10-17T19:13:10;13.50;99.90
38568;DHT22;24338;48.280;10.970;2022-10-17T19:16:57;13.40;99.90
38568;DHT22;24338;48.280;10.970;2022-10-17T19:21:09;13.30;99.90
38568;DHT22;24338;48.280;10.970;2022-10-17T19:25:08;13.10;99.90